createdAt,value
2018-08-13T00:01:51.789Z,3.03
2018-08-13T00:04:21.938Z,3.47
2018-08-13T00:06:52.122Z,3.23
2018-08-13T00:09:42.159Z,4.87
2018-08-13T00:12:13.554Z,8.43
2018-08-13T00:14:43.757Z,2.93
2018-08-13T00:17:13.900Z,3.67
2018-08-13T00:19:44.143Z,5.50
2018-08-13T00:22:14.574Z,3.03
2018-08-13T00:24:44.751Z,2.17
2018-08-13T00:27:14.897Z,3.33
2018-08-13T00:29:45.051Z,3.37
2018-08-13T00:32:17.134Z,3.63
2018-08-13T00:34:47.341Z,3.30
2018-08-13T00:37:17.566Z,3.40
2018-08-13T00:39:48.205Z,4.77
2018-08-13T00:42:18.332Z,4.20
2018-08-13T00:44:48.460Z,5.50
2018-08-13T00:47:18.673Z,3.17
2018-08-13T00:49:48.858Z,2.50
2018-08-13T00:52:18.998Z,5.63
2018-08-13T00:54:49.345Z,3.03
2018-08-13T00:57:19.452Z,3.23
2018-08-13T00:59:49.615Z,2.87
2018-08-13T01:02:19.765Z,3.70
2018-08-13T01:04:49.989Z,3.27
2018-08-13T01:07:20.391Z,4.30
2018-08-13T01:09:50.627Z,3.50
2018-08-13T01:12:20.752Z,3.33
2018-08-13T01:14:50.992Z,2.70
2018-08-13T01:17:21.236Z,3.23
2018-08-13T01:19:51.537Z,2.53
2018-08-13T01:22:21.610Z,2.50
2018-08-13T01:24:51.745Z,3.73
2018-08-13T01:27:27.031Z,3.77
2018-08-13T01:29:57.265Z,2.87
2018-08-13T01:32:27.384Z,3.90
2018-08-13T01:34:57.546Z,4.27
2018-08-13T01:37:28.497Z,3.30
2018-08-13T01:39:58.954Z,2.30
2018-08-13T01:42:29.010Z,6.77
2018-08-13T01:44:59.158Z,3.40
2018-08-13T01:47:29.266Z,4.30
2018-08-13T01:49:59.426Z,2.60
2018-08-13T01:52:29.566Z,2.73
2018-08-13T01:54:59.769Z,4.17
2018-08-13T01:57:30.001Z,5.30
2018-08-13T02:00:00.613Z,3.10
2018-08-13T02:02:30.771Z,3.90
2018-08-13T02:05:01.079Z,3.93
2018-08-13T02:07:31.240Z,3.20
2018-08-13T02:10:01.748Z,2.80
2018-08-13T02:12:31.941Z,6.60
2018-08-13T02:15:02.418Z,3.77
2018-08-13T02:17:32.743Z,3.27
2018-08-13T02:20:02.996Z,2.83
2018-08-13T02:22:33.269Z,2.43
2018-08-13T02:25:03.888Z,4.07
2018-08-13T02:27:34.023Z,3.03
2018-08-13T02:30:07.757Z,4.67
2018-08-13T02:32:38.451Z,3.10
2018-08-13T02:35:09.912Z,4.50
2018-08-13T02:37:40.627Z,4.13
2018-08-13T02:40:11.592Z,2.40
2018-08-13T02:42:41.832Z,3.53
2018-08-13T02:45:12.501Z,4.30
2018-08-13T02:47:42.607Z,2.80
2018-08-13T02:50:14.645Z,3.50
2018-08-13T02:52:45.144Z,2.30
2018-08-13T02:55:15.422Z,3.63
2018-08-13T02:57:45.848Z,2.63
2018-08-13T03:00:16.324Z,4.23
2018-08-13T03:02:46.558Z,2.70
2018-08-13T03:05:17.060Z,6.40
2018-08-13T03:07:47.379Z,3.87
2018-08-13T03:10:17.592Z,4.37
2018-08-13T03:12:47.798Z,2.17
2018-08-13T03:15:18.005Z,6.73
2018-08-13T03:17:48.115Z,3.10
2018-08-13T03:20:18.269Z,2.43
2018-08-13T03:22:48.427Z,3.80
2018-08-13T03:25:18.711Z,2.43
2018-08-13T03:27:49.072Z,4.53
2018-08-13T03:30:19.305Z,2.67
2018-08-13T03:32:49.466Z,2.00
2018-08-13T03:35:19.593Z,3.80
2018-08-13T03:37:49.753Z,3.00
2018-08-13T03:40:19.954Z,2.43
2018-08-13T03:42:50.123Z,1.83
2018-08-13T03:45:20.219Z,2.63
2018-08-13T03:47:50.272Z,2.67
2018-08-13T03:50:20.401Z,2.00
2018-08-13T03:52:50.525Z,3.13
2018-08-13T03:55:20.704Z,2.87
2018-08-13T03:57:50.822Z,2.53
2018-08-13T04:00:21.005Z,3.23
2018-08-13T04:02:51.095Z,1.93
2018-08-13T04:05:21.306Z,3.20
2018-08-13T04:07:51.382Z,2.00
2018-08-13T04:10:21.626Z,2.53
2018-08-13T04:12:51.830Z,3.33
2018-08-13T04:15:22.083Z,4.40
2018-08-13T04:17:52.289Z,2.33
2018-08-13T04:20:22.713Z,2.90
2018-08-13T04:22:52.880Z,3.23
2018-08-13T04:25:23.043Z,3.63
2018-08-13T04:27:53.176Z,4.83
2018-08-13T04:30:23.389Z,4.17
2018-08-13T04:32:53.590Z,5.40
2018-08-13T04:35:23.741Z,4.13
2018-08-13T04:37:53.789Z,5.40
2018-08-13T04:40:23.927Z,5.33
2018-08-13T04:42:54.084Z,4.10
2018-08-13T04:45:24.259Z,4.73
2018-08-13T04:47:56.320Z,4.80
2018-08-13T04:50:26.452Z,7.23
2018-08-13T04:52:56.581Z,3.03
2018-08-13T04:55:26.825Z,3.47
2018-08-13T04:57:57.392Z,4.17
2018-08-13T05:00:27.503Z,3.13
2018-08-13T05:02:57.578Z,3.70
2018-08-13T05:05:27.858Z,3.90
2018-08-13T05:07:57.978Z,5.00
2018-08-13T05:10:28.211Z,6.20
2018-08-13T05:12:58.364Z,6.77
2018-08-13T05:15:28.596Z,2.43
2018-08-13T05:17:58.764Z,4.70
2018-08-13T05:20:29.029Z,4.47
2018-08-13T05:22:59.124Z,3.57
2018-08-13T05:25:29.254Z,7.70
2018-08-13T05:27:59.448Z,7.53
2018-08-13T05:30:29.639Z,6.53
2018-08-13T05:32:59.804Z,8.87
2018-08-13T05:35:29.987Z,5.10
2018-08-13T05:38:00.171Z,4.30
2018-08-13T05:40:30.377Z,6.83
2018-08-13T05:43:00.570Z,4.73
2018-08-13T05:45:30.698Z,6.63
2018-08-13T05:48:00.827Z,5.57
2018-08-13T05:50:31.213Z,4.50
2018-08-13T05:53:01.397Z,5.27
2018-08-13T05:55:31.530Z,5.73
2018-08-13T05:58:01.651Z,4.90
2018-08-13T06:00:31.899Z,5.57
2018-08-13T06:03:02.059Z,6.13
2018-08-13T06:05:32.267Z,6.73
2018-08-13T06:08:02.334Z,5.90
2018-08-13T06:10:32.517Z,8.33
2018-08-13T06:13:02.714Z,6.47
2018-08-13T06:15:32.950Z,6.93
2018-08-13T06:18:03.191Z,12.80
2018-08-13T06:20:33.298Z,7.20
2018-08-13T06:23:03.511Z,5.40
2018-08-13T06:25:33.607Z,8.17
2018-08-13T06:28:03.788Z,6.47
2018-08-13T06:30:33.959Z,8.33
2018-08-13T06:33:04.222Z,5.70
2018-08-13T06:35:34.440Z,6.70
2018-08-13T06:38:04.722Z,6.60
2018-08-13T06:40:34.876Z,5.60
2018-08-13T06:43:05.097Z,4.67
2018-08-13T06:45:35.347Z,6.13
2018-08-13T06:48:05.442Z,6.10
2018-08-13T06:50:35.664Z,6.63
2018-08-13T06:53:05.854Z,4.30
2018-08-13T06:55:36.046Z,6.80
2018-08-13T06:58:06.583Z,11.83
2018-08-13T07:00:36.872Z,7.80
2018-08-13T07:03:07.556Z,7.83
2018-08-13T07:05:37.685Z,5.57
2018-08-13T07:08:08.436Z,5.80
2018-08-13T07:10:38.648Z,6.40
2018-08-13T07:13:08.870Z,6.70
2018-08-13T07:15:39.110Z,5.70
2018-08-13T07:18:09.333Z,6.67
2018-08-13T07:20:39.468Z,12.60
2018-08-13T07:23:09.630Z,6.03
2018-08-13T07:25:39.888Z,5.07
2018-08-13T07:28:10.107Z,6.50
2018-08-13T07:30:40.283Z,7.87
2018-08-13T07:33:10.456Z,6.67
2018-08-13T07:35:40.618Z,6.27
2018-08-13T07:38:10.773Z,6.70
2018-08-13T07:40:40.916Z,6.93
2018-08-13T07:43:11.230Z,6.90
2018-08-13T07:45:41.421Z,4.73
2018-08-13T07:48:11.577Z,9.03
2018-08-13T07:50:41.778Z,3.83
2018-08-13T07:53:11.942Z,6.73
2018-08-13T07:55:42.097Z,5.83
2018-08-13T07:58:12.280Z,12.73
2018-08-13T08:00:42.377Z,6.77
2018-08-13T08:03:12.576Z,6.80
2018-08-13T08:05:42.775Z,3.90
2018-08-13T08:08:12.963Z,5.83
2018-08-13T08:10:43.072Z,4.70
2018-08-13T08:13:13.264Z,3.67
2018-08-13T08:15:43.564Z,6.03
2018-08-13T08:18:13.679Z,5.47
2018-08-13T08:20:44.002Z,4.10
2018-08-13T08:23:14.378Z,4.13
2018-08-13T08:25:44.571Z,5.80
2018-08-13T08:28:14.743Z,4.10
2018-08-13T08:30:44.968Z,5.43
2018-08-13T08:33:15.110Z,4.37
2018-08-13T08:35:45.388Z,5.10
2018-08-13T08:38:15.529Z,3.30
2018-08-13T08:40:45.726Z,2.37
2018-08-13T08:43:15.946Z,2.50
2018-08-13T08:45:46.195Z,3.43
2018-08-13T08:48:16.316Z,5.83
2018-08-13T08:50:46.449Z,2.37
2018-08-13T08:53:16.588Z,3.00
2018-08-13T08:55:46.791Z,2.10
2018-08-13T08:58:16.944Z,2.90
2018-08-13T09:00:47.448Z,3.50
2018-08-13T09:03:17.643Z,1.83
2018-08-13T09:05:47.800Z,2.53
2018-08-13T09:08:18.047Z,3.70
2018-08-13T09:10:48.290Z,4.30
2018-08-13T09:13:18.423Z,3.47
2018-08-13T09:15:48.608Z,2.90
2018-08-13T09:18:35.218Z,2.73
2018-08-13T09:21:21.944Z,5.10
2018-08-13T09:24:09.118Z,6.50
2018-08-13T09:26:55.864Z,5.00
2018-08-13T09:29:42.503Z,8.40
2018-08-13T09:32:33.101Z,7.40
2018-08-13T09:35:25.517Z,3.00
2018-08-13T09:37:56.615Z,2.20
2018-08-13T09:40:27.620Z,2.40
2018-08-13T09:42:57.830Z,3.20
2018-08-13T09:45:27.989Z,1.90
2018-08-13T09:47:58.278Z,3.70
2018-08-13T09:50:28.407Z,5.40
2018-08-13T09:52:58.545Z,4.10
2018-08-13T09:55:28.731Z,5.07
2018-08-13T09:57:58.883Z,6.70
2018-08-13T10:00:34.180Z,4.13
2018-08-13T10:03:04.904Z,2.70
2018-08-13T10:05:35.060Z,2.70
2018-08-13T10:08:05.887Z,1.93
2018-08-13T10:10:36.145Z,2.13
2018-08-13T10:13:06.435Z,2.73
2018-08-13T10:15:40.361Z,2.33
2018-08-13T10:18:18.211Z,2.23
2018-08-13T10:20:52.784Z,7.20
2018-08-13T10:23:25.316Z,3.13
2018-08-13T10:25:55.515Z,3.97
2018-08-13T10:28:25.711Z,3.03
2018-08-13T10:30:55.852Z,2.47
2018-08-13T10:33:26.045Z,2.60
2018-08-13T10:35:56.205Z,3.23
2018-08-13T10:38:26.376Z,4.33
2018-08-13T10:40:56.487Z,4.40
2018-08-13T10:43:26.772Z,2.93
2018-08-13T10:45:56.900Z,3.63
2018-08-13T10:48:27.090Z,5.00
2018-08-13T10:50:57.235Z,2.33
2018-08-13T10:53:27.436Z,3.50
2018-08-13T10:55:57.651Z,3.50
2018-08-13T10:58:27.881Z,3.50
2018-08-13T11:00:58.166Z,2.30
2018-08-13T11:03:29.826Z,2.17
2018-08-13T11:06:00.079Z,2.53
2018-08-13T11:08:30.394Z,2.57
2018-08-13T11:11:06.017Z,3.93
2018-08-13T11:13:36.243Z,2.70
2018-08-13T11:16:06.395Z,2.70
2018-08-13T11:18:36.902Z,3.07
2018-08-13T11:21:07.133Z,3.03
2018-08-13T11:23:37.446Z,5.83
2018-08-13T11:26:08.176Z,2.20
2018-08-13T11:28:38.336Z,3.47
2018-08-13T11:31:08.475Z,2.87
2018-08-13T11:33:38.643Z,3.57
2018-08-13T11:36:08.808Z,3.37
2018-08-13T11:38:38.954Z,3.20
2018-08-13T11:41:09.075Z,2.53
2018-08-13T11:43:39.323Z,5.60
2018-08-13T11:46:09.533Z,4.30
2018-08-13T11:48:39.880Z,4.45
2018-08-13T11:51:10.179Z,4.40
2018-08-13T11:53:40.605Z,3.90
2018-08-13T11:56:10.863Z,7.93
2018-08-13T11:58:41.236Z,3.57
2018-08-13T12:01:11.570Z,2.90
2018-08-13T12:03:41.769Z,4.33
2018-08-13T12:06:11.876Z,2.60
2018-08-13T12:08:42.131Z,2.37
2018-08-13T12:11:12.359Z,4.03
2018-08-13T12:13:42.511Z,3.00
2018-08-13T12:16:12.719Z,4.10
2018-08-13T12:18:43.139Z,3.80
2018-08-13T12:21:13.342Z,2.50
2018-08-13T12:23:43.489Z,3.17
2018-08-13T12:26:13.644Z,3.90
2018-08-13T12:28:43.761Z,4.27
2018-08-13T12:31:14.871Z,3.13
2018-08-13T12:33:46.016Z,3.33
2018-08-13T12:36:16.158Z,3.33
2018-08-13T12:38:46.414Z,3.77
2018-08-13T12:41:16.644Z,3.03
2018-08-13T12:43:46.858Z,8.40
2018-08-13T12:46:16.962Z,3.37
2018-08-13T12:48:47.212Z,4.33
2018-08-13T12:51:17.369Z,3.57
2018-08-13T12:53:47.586Z,2.77
2018-08-13T12:56:17.693Z,4.50
2018-08-13T12:58:47.780Z,4.00
2018-08-13T13:01:17.907Z,3.87
2018-08-13T13:03:48.171Z,6.30
2018-08-13T13:06:18.280Z,4.73
2018-08-13T13:08:48.686Z,3.40
2018-08-13T13:11:18.860Z,2.60
2018-08-13T13:13:49.210Z,4.80
2018-08-13T13:16:19.289Z,2.60
2018-08-13T13:18:49.440Z,3.20
2018-08-13T13:21:19.844Z,4.10
2018-08-13T13:23:50.022Z,2.93
2018-08-13T13:26:20.270Z,4.10
2018-08-13T13:28:50.433Z,3.70
2018-08-13T13:31:20.514Z,3.03
2018-08-13T13:33:50.770Z,2.23
2018-08-13T13:36:21.203Z,2.60
2018-08-13T13:38:51.365Z,2.10
2018-08-13T13:41:21.563Z,4.10
2018-08-13T13:43:51.713Z,4.00
2018-08-13T13:46:21.888Z,2.30
2018-08-13T13:48:52.071Z,2.40
2018-08-13T13:51:22.162Z,4.10
2018-08-13T13:53:52.336Z,2.50
2018-08-13T13:56:22.471Z,2.20
2018-08-13T13:58:52.620Z,2.97
2018-08-13T14:01:22.835Z,4.20
2018-08-13T14:03:53.399Z,2.50
2018-08-13T14:06:24.039Z,3.70
2018-08-13T14:08:54.156Z,4.73
2018-08-13T14:11:24.283Z,3.77
2018-08-13T14:13:54.473Z,2.20
2018-08-13T14:16:24.719Z,2.80
2018-08-13T14:18:55.288Z,3.77
2018-08-13T14:21:25.949Z,5.13
2018-08-13T14:23:56.150Z,3.07
2018-08-13T14:26:26.279Z,4.70
2018-08-13T14:28:56.711Z,3.40
2018-08-13T14:31:27.026Z,3.87
2018-08-13T14:33:57.514Z,4.40
2018-08-13T14:36:27.882Z,3.07
2018-08-13T14:38:58.032Z,3.20
2018-08-13T14:41:28.337Z,3.40
2018-08-13T14:43:58.506Z,3.80
2018-08-13T14:46:28.740Z,7.10
2018-08-13T14:48:59.012Z,5.07
2018-08-13T14:51:29.214Z,4.20
2018-08-13T14:53:59.466Z,4.63
2018-08-13T14:56:29.589Z,4.77
2018-08-13T14:58:59.815Z,3.60
2018-08-13T15:01:30.025Z,3.93
2018-08-13T15:04:00.400Z,3.50
2018-08-13T15:06:30.578Z,2.87
2018-08-13T15:09:00.800Z,3.80
2018-08-13T15:11:39.897Z,8.70
2018-08-13T15:14:12.935Z,4.30
2018-08-13T15:16:43.142Z,4.00
2018-08-13T15:19:13.415Z,5.33
2018-08-13T15:21:43.680Z,8.70
2018-08-13T15:24:13.864Z,6.77
2018-08-13T15:26:44.124Z,7.20
2018-08-13T15:29:14.277Z,6.50
2018-08-13T15:31:44.421Z,6.57
2018-08-13T15:34:18.312Z,6.90
2018-08-13T15:36:48.464Z,6.73
2018-08-13T15:39:18.776Z,5.60
2018-08-13T15:41:48.927Z,6.40
2018-08-13T15:44:19.338Z,9.03
2018-08-13T15:46:49.530Z,9.43
2018-08-13T15:49:19.726Z,7.50
2018-08-13T15:51:49.932Z,6.60
2018-08-13T15:54:20.129Z,8.40
2018-08-13T15:56:50.295Z,6.77
2018-08-13T15:59:20.603Z,7.23
2018-08-13T16:01:50.835Z,8.40
2018-08-13T16:04:20.976Z,10.10
2018-08-13T16:06:51.127Z,7.73
2018-08-13T16:09:21.733Z,12.60
2018-08-13T16:11:51.907Z,9.27
2018-08-13T16:14:22.159Z,11.00
2018-08-13T16:16:52.254Z,8.73
2018-08-13T16:19:22.476Z,9.27
2018-08-13T16:21:52.995Z,10.03
2018-08-13T16:24:23.231Z,11.93
2018-08-13T16:26:55.598Z,9.83
2018-08-13T16:29:25.844Z,9.70
2018-08-13T16:31:56.010Z,11.13
2018-08-13T16:34:26.442Z,9.20
2018-08-13T16:36:56.779Z,8.70
2018-08-13T16:39:27.058Z,9.90
2018-08-13T16:41:57.470Z,8.57
2018-08-13T16:44:27.853Z,7.73
2018-08-13T16:46:58.077Z,6.20
2018-08-13T16:49:28.340Z,6.70
2018-08-13T16:51:58.471Z,6.70
2018-08-13T16:54:28.872Z,6.33
2018-08-13T16:56:59.119Z,7.93
2018-08-13T16:59:29.304Z,5.40
2018-08-13T17:01:59.421Z,6.27
2018-08-13T17:04:29.672Z,5.90
2018-08-13T17:06:59.952Z,6.67
2018-08-13T17:09:30.137Z,7.30
2018-08-13T17:12:00.250Z,8.63
2018-08-13T17:14:30.681Z,9.83
2018-08-13T17:17:00.678Z,8.00
2018-08-13T17:19:30.861Z,9.37
2018-08-13T17:22:01.107Z,10.73
2018-08-13T17:24:31.431Z,9.50
2018-08-13T17:27:01.667Z,11.10
2018-08-13T17:29:31.902Z,8.93
2018-08-13T17:32:02.108Z,8.93
2018-08-13T17:34:32.500Z,10.23
2018-08-13T17:37:02.712Z,11.90
2018-08-13T17:39:32.904Z,9.57
2018-08-13T17:42:03.095Z,8.37
2018-08-13T17:44:33.222Z,11.80
2018-08-13T17:47:03.360Z,7.73
2018-08-13T17:49:33.525Z,12.13
2018-08-13T17:52:03.630Z,11.30
2018-08-13T17:54:33.837Z,9.40
2018-08-13T17:57:04.387Z,13.70
2018-08-13T17:59:34.549Z,9.87
2018-08-13T18:02:04.748Z,12.00
2018-08-13T18:04:34.936Z,10.33
2018-08-13T18:07:05.831Z,13.03
2018-08-13T18:09:36.016Z,13.53
2018-08-13T18:12:06.184Z,14.77
2018-08-13T18:14:36.448Z,15.47
2018-08-13T18:17:06.589Z,14.37
2018-08-13T18:19:36.845Z,13.77
2018-08-13T18:22:07.628Z,13.57
2018-08-13T18:24:37.916Z,15.97
2018-08-13T18:27:12.542Z,17.33
2018-08-13T18:29:42.677Z,14.90
2018-08-13T18:32:13.254Z,15.53
2018-08-13T18:34:43.430Z,17.60
2018-08-13T18:37:13.883Z,15.90
2018-08-13T18:39:44.204Z,19.07
2018-08-13T18:42:14.363Z,16.87
2018-08-13T18:44:44.546Z,24.23
2018-08-13T18:47:14.971Z,14.47
2018-08-13T18:49:45.266Z,18.20
2018-08-13T18:52:15.390Z,18.47
2018-08-13T18:54:45.651Z,19.50
2018-08-13T18:57:15.813Z,22.63
2018-08-13T18:59:46.027Z,22.20
2018-08-13T19:02:16.246Z,20.43
2018-08-13T19:04:46.462Z,18.27
2018-08-13T19:07:16.619Z,18.20
2018-08-13T19:09:46.807Z,17.80
2018-08-13T19:12:16.992Z,19.37
2018-08-13T19:14:47.219Z,19.83
2018-08-13T19:17:17.426Z,18.53
2018-08-13T19:19:47.658Z,19.47
2018-08-13T19:22:18.219Z,18.10
2018-08-13T19:24:48.653Z,18.57
2018-08-13T19:27:18.857Z,20.17
2018-08-13T19:29:49.161Z,19.40
2018-08-13T19:32:19.322Z,18.00
2018-08-13T19:34:49.894Z,21.20
2018-08-13T19:37:20.089Z,25.53
2018-08-13T19:39:50.290Z,28.67
2018-08-13T19:42:20.473Z,23.47
2018-08-13T19:44:50.846Z,25.33
2018-08-13T19:47:21.067Z,21.10
2018-08-13T19:49:51.513Z,25.97
2018-08-13T19:52:21.781Z,22.20
2018-08-13T19:54:52.294Z,21.10
2018-08-13T19:57:22.524Z,22.00
2018-08-13T19:59:52.906Z,31.00
2018-08-13T20:02:23.499Z,23.30
2018-08-13T20:04:54.041Z,28.13
2018-08-13T20:07:24.230Z,24.20
2018-08-13T20:09:54.392Z,27.70
2018-08-13T20:12:24.716Z,27.30
2018-08-13T20:14:54.941Z,22.33
2018-08-13T20:17:25.964Z,30.57
2018-08-13T20:19:56.256Z,30.40
2018-08-13T20:22:26.421Z,30.10
2018-08-13T20:24:56.758Z,28.23
2018-08-13T20:27:26.945Z,31.67
2018-08-13T20:29:57.138Z,39.83
2018-08-13T20:32:27.335Z,24.57
2018-08-13T20:34:57.639Z,26.10
2018-08-13T20:37:28.095Z,27.33
2018-08-13T20:39:58.825Z,29.20
2018-08-13T20:42:29.206Z,26.30
2018-08-13T20:44:59.784Z,34.67
2018-08-13T20:47:30.392Z,28.50
2018-08-13T20:50:01.062Z,29.60
2018-08-13T20:52:31.283Z,25.40
2018-08-13T20:55:01.663Z,35.20
2018-08-13T20:57:31.791Z,35.10
2018-08-13T21:00:02.184Z,31.93
2018-08-13T21:02:33.424Z,34.77
2018-08-13T21:05:03.607Z,29.90
2018-08-13T21:07:34.007Z,41.73
2018-08-13T21:10:04.548Z,41.10
2018-08-13T21:12:34.789Z,30.30
2018-08-13T21:15:06.453Z,33.93
2018-08-13T21:17:36.688Z,35.37
2018-08-13T21:20:08.229Z,37.90
2018-08-13T21:22:38.969Z,40.97
2018-08-13T21:25:13.168Z,43.67
2018-08-13T21:27:43.975Z,33.47
2018-08-13T21:30:14.278Z,42.73
2018-08-13T21:32:44.869Z,35.40
2018-08-13T21:35:22.756Z,39.30
2018-08-13T21:37:53.264Z,37.77
2018-08-13T21:40:24.603Z,36.50
2018-08-13T21:42:54.990Z,38.57
2018-08-13T21:45:25.150Z,32.33
2018-08-13T21:47:55.324Z,37.07
2018-08-13T21:50:25.624Z,27.90
2018-08-13T21:52:55.877Z,33.93
2018-08-13T21:55:26.125Z,31.47
2018-08-13T21:57:56.289Z,27.07
2018-08-13T22:00:31.829Z,24.53
2018-08-13T22:03:03.636Z,29.83
2018-08-13T22:05:33.934Z,32.27
2018-08-13T22:08:04.224Z,32.80
2018-08-13T22:10:34.548Z,32.10
2018-08-13T22:13:04.866Z,29.90
2018-08-13T22:15:35.200Z,27.00
2018-08-13T22:18:07.917Z,31.37
2018-08-13T22:20:38.803Z,31.03
2018-08-13T22:23:09.817Z,23.83
2018-08-13T22:25:44.728Z,28.47
2018-08-13T22:28:18.332Z,22.17
2018-08-13T22:30:49.326Z,25.40
2018-08-13T22:33:22.960Z,23.33
2018-08-13T22:35:53.243Z,22.10
2018-08-13T22:38:23.352Z,20.60
2018-08-13T22:40:53.536Z,22.70
2018-08-13T22:43:23.666Z,20.40
2018-08-13T22:45:53.878Z,32.43
2018-08-13T22:48:24.045Z,29.13
2018-08-13T22:50:54.202Z,35.63
2018-08-13T22:53:25.148Z,40.40
2018-08-13T22:55:55.382Z,35.27
2018-08-13T22:58:25.512Z,34.90
2018-08-13T23:00:55.830Z,28.23
2018-08-13T23:03:25.979Z,34.00
2018-08-13T23:05:56.158Z,33.93
2018-08-13T23:08:26.397Z,33.83
2018-08-13T23:10:56.482Z,27.47
2018-08-13T23:13:26.836Z,25.20
2018-08-13T23:15:57.069Z,23.73
2018-08-13T23:18:27.189Z,19.77
2018-08-13T23:20:57.411Z,20.20
2018-08-13T23:23:27.568Z,18.33
2018-08-13T23:25:57.759Z,24.50
2018-08-13T23:28:27.865Z,27.83
2018-08-13T23:30:57.998Z,22.80
2018-08-13T23:33:28.165Z,21.37
2018-08-13T23:35:58.389Z,22.70
2018-08-13T23:38:28.562Z,23.73
2018-08-13T23:40:58.796Z,19.97
2018-08-13T23:43:29.192Z,22.00
2018-08-13T23:45:59.546Z,18.60
2018-08-13T23:48:29.786Z,16.53
2018-08-13T23:51:00.020Z,23.80
2018-08-13T23:53:30.132Z,17.53
2018-08-13T23:56:00.500Z,22.40
2018-08-13T23:58:30.678Z,19.30
